In Rescue
 
Open Full Screen Window  High Contrast Mode
Wind Gusting 00 knots
06
February 25, 2021 5:42 PM EST
Weather Information
Wind Direction
  270 °
Wind Speed
  06 kt (7 mph)
Wind Gust
  00 kt (0 mph)
Altimeter
30.30 in
Visibility
10 SM
Temperature
03° C
37° F
Dewpoint
-02° C
28° F
Humidity
70%
Sky Condition
Clear
VFR

METAR KAXV 252242Z AUTO 27006KT 10SM CLR 03/M02 A3030 RMK AO2

FAA Disclaimer: The data displayed is for advisory purposes only and is not to be used for flight planning or operations.